createdAt,value
2017-10-07T00:00:10.847Z,10.3
2017-10-07T00:01:13.271Z,10.3
2017-10-07T00:02:15.698Z,10.4
2017-10-07T00:03:18.127Z,10.4
2017-10-07T00:04:20.553Z,10.4
2017-10-07T00:05:22.981Z,10.4
2017-10-07T00:06:25.414Z,10.4
2017-10-07T00:07:27.843Z,10.4
2017-10-07T00:08:30.606Z,10.4
2017-10-07T00:09:33.025Z,10.4
2017-10-07T00:10:35.458Z,10.4
2017-10-07T00:11:37.913Z,10.4
2017-10-07T00:12:40.343Z,10.4
2017-10-07T00:13:42.769Z,10.4
2017-10-07T00:14:45.199Z,10.4
2017-10-07T00:15:47.625Z,10.4
2017-10-07T00:16:50.052Z,10.4
2017-10-07T00:17:52.477Z,10.4
2017-10-07T00:18:54.896Z,10.4
2017-10-07T00:19:57.667Z,10.4
2017-10-07T00:21:00.096Z,10.4
2017-10-07T00:22:02.868Z,10.4
2017-10-07T00:23:05.300Z,10.5
2017-10-07T00:24:07.716Z,10.5
2017-10-07T00:25:10.143Z,10.5
2017-10-07T00:26:12.579Z,10.5
2017-10-07T00:27:15.002Z,10.5
2017-10-07T00:28:17.425Z,10.4
2017-10-07T00:29:19.860Z,10.5
2017-10-07T00:30:22.283Z,10.5
2017-10-07T00:31:24.721Z,10.5
2017-10-07T00:32:27.151Z,10.5
2017-10-07T00:33:29.562Z,10.5
2017-10-07T00:34:32.338Z,10.4
2017-10-07T00:35:34.767Z,10.4
2017-10-07T00:36:37.201Z,10.4
2017-10-07T00:37:39.629Z,10.4
2017-10-07T00:38:42.055Z,10.5
2017-10-07T00:39:44.486Z,10.4
2017-10-07T00:40:46.916Z,10.4
2017-10-07T00:41:49.345Z,10.5
2017-10-07T00:42:51.770Z,10.4
2017-10-07T00:43:54.193Z,10.5
2017-10-07T00:44:56.629Z,10.5
2017-10-07T00:45:59.056Z,10.4
2017-10-07T00:47:01.483Z,10.4
2017-10-07T00:48:03.902Z,10.4
2017-10-07T00:49:06.341Z,10.4
2017-10-07T00:50:08.764Z,10.4
2017-10-07T00:51:11.198Z,10.4
2017-10-07T00:52:13.625Z,10.4
2017-10-07T00:53:16.058Z,10.4
2017-10-07T00:54:18.488Z,10.3
2017-10-07T00:55:20.919Z,10.3
2017-10-07T00:56:23.353Z,10.3
2017-10-07T00:57:25.781Z,10.3
2017-10-07T00:58:28.199Z,10.3
2017-10-07T00:59:30.636Z,10.3
2017-10-07T01:00:33.058Z,10.3
2017-10-07T01:01:35.481Z,10.3
2017-10-07T01:02:37.912Z,10.3
2017-10-07T01:03:40.339Z,10.3
2017-10-07T01:04:42.765Z,10.3
2017-10-07T01:05:45.192Z,10.2
2017-10-07T01:06:47.626Z,10.2
2017-10-07T01:07:50.052Z,10.2
2017-10-07T01:08:52.813Z,10.3
2017-10-07T01:09:55.238Z,10.3
2017-10-07T01:10:57.668Z,10.3
2017-10-07T01:12:00.097Z,10.3
2017-10-07T01:13:02.529Z,10.3
2017-10-07T01:14:04.963Z,10.3
2017-10-07T01:15:07.391Z,10.2
2017-10-07T01:16:09.834Z,10.2
2017-10-07T01:17:12.255Z,10.2
2017-10-07T01:18:14.695Z,10.2
2017-10-07T01:19:17.119Z,10.2
2017-10-07T01:20:19.545Z,10.1
2017-10-07T01:21:21.985Z,10.1
2017-10-07T01:22:24.768Z,10.1
2017-10-07T01:23:27.177Z,10.1
2017-10-07T01:24:29.613Z,10.1
2017-10-07T01:25:32.043Z,10
2017-10-07T01:26:34.463Z,10
2017-10-07T01:27:36.891Z,10
2017-10-07T01:28:39.316Z,9.9
2017-10-07T01:29:41.737Z,9.9
2017-10-07T01:30:44.178Z,9.9
2017-10-07T01:31:46.601Z,9.9
2017-10-07T01:32:49.036Z,9.9
2017-10-07T01:33:51.473Z,9.9
2017-10-07T01:34:53.904Z,9.9
2017-10-07T01:35:56.330Z,9.9
2017-10-07T01:36:58.764Z,9.9
2017-10-07T01:38:01.190Z,9.9
2017-10-07T01:39:03.638Z,9.9
2017-10-07T01:40:06.059Z,9.9
2017-10-07T01:41:08.839Z,9.9
2017-10-07T01:42:11.625Z,9.9
2017-10-07T01:43:14.048Z,9.9
2017-10-07T01:44:16.477Z,9.9
2017-10-07T01:45:18.907Z,10
2017-10-07T01:46:21.332Z,10
2017-10-07T01:47:23.757Z,10
2017-10-07T01:48:26.186Z,10.1
2017-10-07T01:49:28.597Z,10.1
2017-10-07T01:50:31.037Z,10.1
2017-10-07T01:51:33.464Z,10.1
2017-10-07T01:52:35.889Z,10.1
2017-10-07T01:53:38.320Z,10.1
2017-10-07T01:54:40.736Z,10.1
2017-10-07T01:55:43.162Z,10.1
2017-10-07T01:56:45.972Z,10.1
2017-10-07T01:57:48.387Z,10.1
2017-10-07T01:58:50.816Z,10.1
2017-10-07T01:59:53.248Z,10.1
2017-10-07T02:00:55.676Z,10.2
2017-10-07T02:01:58.109Z,10.2
2017-10-07T02:03:00.545Z,10.2
2017-10-07T02:04:02.961Z,10.2
2017-10-07T02:05:05.399Z,10.2
2017-10-07T02:06:07.821Z,10.2
2017-10-07T02:07:10.255Z,10.2
2017-10-07T02:08:12.671Z,10.3
2017-10-07T02:09:15.105Z,10.3
2017-10-07T02:10:17.540Z,10.3
2017-10-07T02:11:19.967Z,10.3
2017-10-07T02:12:22.399Z,10.3
2017-10-07T02:13:24.823Z,10.3
2017-10-07T02:14:27.248Z,10.3
2017-10-07T02:15:29.693Z,10.3
2017-10-07T02:16:32.459Z,10.3
2017-10-07T02:17:34.880Z,10.3
2017-10-07T02:18:37.304Z,10.4
2017-10-07T02:19:39.735Z,10.3
2017-10-07T02:20:42.164Z,10.3
2017-10-07T02:21:44.594Z,10.4
2017-10-07T02:22:47.004Z,10.4
2017-10-07T02:23:49.433Z,10.4
2017-10-07T02:24:51.861Z,10.4
2017-10-07T02:25:54.293Z,10.4
2017-10-07T02:26:56.721Z,10.4
2017-10-07T02:27:59.151Z,10.4
2017-10-07T02:29:01.579Z,10.4
2017-10-07T02:30:04.016Z,10.3
2017-10-07T02:31:06.449Z,10.3
2017-10-07T02:32:08.873Z,10.3
2017-10-07T02:33:11.296Z,10.3
2017-10-07T02:34:13.733Z,10.3
2017-10-07T02:35:16.157Z,10.4
2017-10-07T02:36:18.936Z,10.4
2017-10-07T02:37:21.366Z,10.3
2017-10-07T02:38:24.150Z,10.4
2017-10-07T02:39:26.583Z,10.4
2017-10-07T02:40:29.017Z,10.4
2017-10-07T02:41:31.440Z,10.3
2017-10-07T02:42:34.206Z,10.4
2017-10-07T02:43:36.629Z,10.4
2017-10-07T02:44:39.056Z,10.4
2017-10-07T02:45:41.476Z,10.4
2017-10-07T02:46:43.910Z,10.4
2017-10-07T02:47:46.332Z,10.4
2017-10-07T02:48:48.767Z,10.4
2017-10-07T02:49:51.189Z,10.4
2017-10-07T02:50:53.963Z,10.4
2017-10-07T02:51:56.736Z,10.4
2017-10-07T02:52:59.164Z,10.4
2017-10-07T02:54:01.592Z,10.4
2017-10-07T02:55:04.035Z,10.4
2017-10-07T02:56:06.456Z,10.4
2017-10-07T02:57:09.233Z,10.4
2017-10-07T02:58:11.665Z,10.4
2017-10-07T02:59:14.089Z,10.4
2017-10-07T03:00:16.520Z,10.4
2017-10-07T03:01:18.947Z,10.4
2017-10-07T03:02:21.365Z,10.4
2017-10-07T03:03:23.807Z,10.4
2017-10-07T03:04:26.241Z,10.4
2017-10-07T03:05:28.655Z,10.4
2017-10-07T03:06:31.090Z,10.4
2017-10-07T03:07:33.524Z,10.4
2017-10-07T03:08:35.959Z,10.4
2017-10-07T03:09:38.382Z,10.4
2017-10-07T03:10:40.810Z,10.4
2017-10-07T03:11:43.230Z,10.4
2017-10-07T03:12:45.666Z,10.3
2017-10-07T03:13:48.094Z,10.4
2017-10-07T03:14:50.512Z,10.4
2017-10-07T03:15:52.952Z,10.3
2017-10-07T03:16:55.382Z,10.3
2017-10-07T03:17:57.809Z,10.3
2017-10-07T03:19:00.244Z,10.3
2017-10-07T03:20:02.662Z,10.3
2017-10-07T03:21:05.431Z,10.3
2017-10-07T03:22:07.864Z,10.3
2017-10-07T03:23:10.633Z,10.3
2017-10-07T03:24:13.065Z,10.3
2017-10-07T03:25:15.501Z,10.3
2017-10-07T03:26:17.924Z,10.3
2017-10-07T03:27:20.371Z,10.3
2017-10-07T03:28:22.791Z,10.3
2017-10-07T03:29:25.211Z,10.2
2017-10-07T03:30:27.998Z,10.2
2017-10-07T03:31:30.419Z,10.3
2017-10-07T03:32:33.214Z,10.3
2017-10-07T03:33:35.649Z,10.3
2017-10-07T03:34:38.078Z,10.3
2017-10-07T03:35:40.510Z,10.3
2017-10-07T03:36:42.923Z,10.3
2017-10-07T03:37:45.350Z,10.3
2017-10-07T03:38:47.794Z,10.3
2017-10-07T03:39:50.217Z,10.3
2017-10-07T03:40:52.643Z,10.3
2017-10-07T03:41:55.070Z,10.3
2017-10-07T03:42:57.498Z,10.3
2017-10-07T03:43:59.938Z,10.3
2017-10-07T03:45:02.374Z,10.4
2017-10-07T03:46:04.790Z,10.3
2017-10-07T03:47:07.219Z,10.4
2017-10-07T03:48:09.656Z,10.4
2017-10-07T03:49:12.086Z,10.4
2017-10-07T03:50:14.514Z,10.4
2017-10-07T03:51:17.276Z,10.4
2017-10-07T03:52:19.711Z,10.4
2017-10-07T03:53:22.155Z,10.4
2017-10-07T03:54:24.928Z,10.4
2017-10-07T03:55:27.349Z,10.4
2017-10-07T03:56:30.112Z,10.4
2017-10-07T03:57:32.540Z,10.4
2017-10-07T03:58:34.968Z,10.4
2017-10-07T03:59:37.396Z,10.4
2017-10-07T04:00:39.805Z,10.4
2017-10-07T04:01:42.236Z,10.4
2017-10-07T04:02:44.676Z,10.4
2017-10-07T04:03:47.111Z,10.3
2017-10-07T04:04:49.536Z,10.3
2017-10-07T04:05:51.967Z,10.3
2017-10-07T04:06:54.396Z,10.4
2017-10-07T04:07:56.834Z,10.4
2017-10-07T04:08:59.255Z,10.3
2017-10-07T04:10:01.692Z,10.3
2017-10-07T04:11:04.109Z,10.3
2017-10-07T04:12:06.546Z,10.3
2017-10-07T04:13:09.313Z,10.3
2017-10-07T04:14:11.739Z,10.3
2017-10-07T04:15:14.166Z,10.3
2017-10-07T04:16:16.593Z,10.3
2017-10-07T04:17:19.016Z,10.3
2017-10-07T04:18:21.447Z,10.3
2017-10-07T04:19:23.873Z,10.3
2017-10-07T04:20:26.650Z,10.2
2017-10-07T04:21:29.085Z,10.2
2017-10-07T04:22:31.514Z,10.2
2017-10-07T04:23:33.938Z,10.2
2017-10-07T04:24:36.379Z,10.2
2017-10-07T04:25:38.791Z,10.2
2017-10-07T04:26:41.234Z,10.2
2017-10-07T04:27:43.657Z,10.2
2017-10-07T04:28:46.087Z,10.2
2017-10-07T04:29:49.211Z,10.2
2017-10-07T04:30:51.640Z,10.2
2017-10-07T04:31:54.078Z,10.2
2017-10-07T04:32:56.513Z,10.2
2017-10-07T04:33:58.944Z,10.2
2017-10-07T04:35:01.373Z,10.2
2017-10-07T04:36:03.796Z,10.2
2017-10-07T04:37:06.571Z,10.1
2017-10-07T04:38:09.005Z,10.2
2017-10-07T04:39:11.781Z,10.1
2017-10-07T04:40:14.212Z,10.2
2017-10-07T04:41:16.642Z,10.2
2017-10-07T04:42:19.068Z,10.2
2017-10-07T04:43:21.497Z,10.2
2017-10-07T04:44:23.930Z,10.2
2017-10-07T04:45:26.346Z,10.2
2017-10-07T04:46:28.768Z,10.2
2017-10-07T04:47:31.548Z,10.2
2017-10-07T04:48:33.982Z,10.2
2017-10-07T04:49:36.410Z,10.2
2017-10-07T04:50:38.830Z,10.2
2017-10-07T04:51:41.275Z,10.2
2017-10-07T04:52:44.069Z,10.2
2017-10-07T04:53:46.850Z,10.3
2017-10-07T04:54:49.263Z,10.3
2017-10-07T04:55:51.693Z,10.3
2017-10-07T04:56:54.119Z,10.3
2017-10-07T04:57:56.542Z,10.3
2017-10-07T04:58:58.974Z,10.2
2017-10-07T05:00:01.729Z,10.3
2017-10-07T05:01:04.159Z,10.3
2017-10-07T05:02:06.595Z,10.2
2017-10-07T05:03:09.016Z,10.2
2017-10-07T05:04:11.443Z,10.3
2017-10-07T05:05:13.865Z,10.3
2017-10-07T05:06:16.451Z,10.2
2017-10-07T05:07:18.859Z,10.3
2017-10-07T05:08:21.290Z,10.3
2017-10-07T05:09:23.728Z,10.3
2017-10-07T05:10:26.155Z,10.3
2017-10-07T05:11:28.589Z,10.3
2017-10-07T05:12:31.013Z,10.3
2017-10-07T05:13:33.441Z,10.3
2017-10-07T05:14:35.871Z,10.2
2017-10-07T05:15:38.292Z,10.2
2017-10-07T05:16:40.709Z,10.2
2017-10-07T05:17:43.138Z,10.2
2017-10-07T05:18:45.891Z,10.2
2017-10-07T05:19:48.321Z,10.2
2017-10-07T05:20:50.748Z,10.2
2017-10-07T05:21:53.175Z,10.2
2017-10-07T05:22:55.604Z,10.2
2017-10-07T05:23:58.038Z,10.2
2017-10-07T05:25:00.463Z,10.2
2017-10-07T05:26:02.906Z,10.2
2017-10-07T05:27:05.323Z,10.2
2017-10-07T05:28:08.112Z,10.2
2017-10-07T05:29:10.533Z,10.2
2017-10-07T05:30:12.962Z,10.2
2017-10-07T05:31:15.397Z,10.2
2017-10-07T05:32:17.812Z,10.2
2017-10-07T05:33:20.257Z,10.2
2017-10-07T05:34:22.680Z,10.2
2017-10-07T05:35:25.110Z,10.2
2017-10-07T05:36:27.542Z,10.2
2017-10-07T05:37:29.971Z,10.2
2017-10-07T05:38:32.404Z,10.2
2017-10-07T05:39:34.842Z,10.2
2017-10-07T05:40:37.255Z,10.2
2017-10-07T05:41:39.686Z,10.2
2017-10-07T05:42:42.121Z,10.2
2017-10-07T05:43:44.890Z,10.2
2017-10-07T05:44:47.311Z,10.3
2017-10-07T05:45:49.736Z,10.3
2017-10-07T05:46:52.153Z,10.2
2017-10-07T05:47:54.579Z,10.2
2017-10-07T05:48:57.007Z,10.2
2017-10-07T05:49:59.431Z,10.2
2017-10-07T05:51:01.867Z,10.2
2017-10-07T05:52:04.294Z,10.3
2017-10-07T05:53:07.090Z,10.2
2017-10-07T05:54:09.517Z,10.2
2017-10-07T05:55:11.951Z,10.2
2017-10-07T05:56:14.376Z,10.2
2017-10-07T05:57:16.803Z,10.2
2017-10-07T05:58:19.568Z,10.2
2017-10-07T05:59:21.991Z,10.2
2017-10-07T06:00:24.411Z,10.2
2017-10-07T06:01:26.846Z,10.2
2017-10-07T06:02:29.272Z,10.2
2017-10-07T06:03:31.691Z,10.2
2017-10-07T06:04:34.472Z,10.2
2017-10-07T06:05:36.902Z,10.2
2017-10-07T06:06:39.655Z,10.2
2017-10-07T06:07:42.089Z,10.2
2017-10-07T06:08:44.870Z,10.2
2017-10-07T06:09:47.294Z,10.2
2017-10-07T06:10:49.727Z,10.2
2017-10-07T06:11:52.152Z,10.2
2017-10-07T06:12:54.922Z,10.2
2017-10-07T06:13:57.361Z,10.2
2017-10-07T06:14:59.786Z,10.2
2017-10-07T06:16:02.223Z,10.2
2017-10-07T06:17:04.989Z,10.2
2017-10-07T06:18:07.402Z,10.2
2017-10-07T06:19:09.836Z,10.2
2017-10-07T06:20:12.270Z,10.2
2017-10-07T06:21:14.698Z,10.2
2017-10-07T06:22:17.323Z,10.2
2017-10-07T06:23:19.830Z,10.2
2017-10-07T06:24:22.252Z,10.2
2017-10-07T06:25:24.698Z,10.2
2017-10-07T06:26:27.129Z,10.2
2017-10-07T06:27:29.543Z,10.2
2017-10-07T06:28:31.968Z,10.2
2017-10-07T06:29:34.408Z,10.2
2017-10-07T06:30:36.840Z,10.2
2017-10-07T06:31:39.280Z,10.2
2017-10-07T06:32:41.708Z,10.2
2017-10-07T06:33:44.137Z,10.2
2017-10-07T06:34:46.934Z,10.2
2017-10-07T06:35:49.366Z,10.2
2017-10-07T06:36:51.791Z,10.2
2017-10-07T06:37:54.225Z,10.2
2017-10-07T06:38:56.641Z,10.2
2017-10-07T06:39:59.086Z,10.2
2017-10-07T06:41:01.516Z,10.2
2017-10-07T06:42:03.945Z,10.2
2017-10-07T06:43:06.379Z,10.2
2017-10-07T06:44:08.812Z,10.2
2017-10-07T06:45:11.241Z,10.2
2017-10-07T06:46:13.674Z,10.2
2017-10-07T06:47:16.106Z,10.2
2017-10-07T06:48:18.539Z,10.1
2017-10-07T06:49:20.976Z,10.1
2017-10-07T06:50:23.428Z,10.2
2017-10-07T06:51:26.195Z,10.2
2017-10-07T06:52:28.628Z,10.2
2017-10-07T06:53:31.048Z,10.2
2017-10-07T06:54:33.480Z,10.3
2017-10-07T06:55:36.587Z,10.2
2017-10-07T06:56:39.018Z,10.2
2017-10-07T06:57:41.442Z,10.2
2017-10-07T06:58:43.880Z,10.2
2017-10-07T06:59:46.306Z,10.2
2017-10-07T07:00:49.416Z,10.2
2017-10-07T07:01:51.854Z,10.2
2017-10-07T07:02:54.289Z,10.3
2017-10-07T07:03:56.708Z,10.2
2017-10-07T07:04:59.140Z,10.2
2017-10-07T07:06:01.920Z,10.2
2017-10-07T07:07:04.347Z,10.2
2017-10-07T07:08:06.773Z,10.2
2017-10-07T07:09:09.207Z,10.2
2017-10-07T07:10:11.630Z,10.2
2017-10-07T07:11:14.072Z,10.2
2017-10-07T07:12:16.523Z,10.2
2017-10-07T07:13:18.933Z,10.2
2017-10-07T07:14:21.367Z,10.2
2017-10-07T07:15:23.797Z,10.2
2017-10-07T07:16:26.232Z,10.2
2017-10-07T07:17:28.660Z,10.2
2017-10-07T07:18:31.096Z,10.2
2017-10-07T07:19:33.530Z,10.2
2017-10-07T07:20:35.958Z,10.2
2017-10-07T07:21:38.387Z,10.2
2017-10-07T07:22:40.799Z,10.3
2017-10-07T07:23:43.587Z,10.3
2017-10-07T07:24:46.009Z,10.3
2017-10-07T07:25:48.439Z,10.3
2017-10-07T07:26:50.863Z,10.3
2017-10-07T07:27:53.631Z,10.3
2017-10-07T07:28:56.061Z,10.3
2017-10-07T07:29:58.496Z,10.3
2017-10-07T07:31:00.920Z,10.3
2017-10-07T07:32:03.345Z,10.3
2017-10-07T07:33:05.769Z,10.3
2017-10-07T07:34:08.201Z,10.3
2017-10-07T07:35:10.618Z,10.3
2017-10-07T07:36:13.046Z,10.3
2017-10-07T07:37:15.476Z,10.3
2017-10-07T07:38:17.910Z,10.3
2017-10-07T07:39:20.352Z,10.4
2017-10-07T07:40:22.782Z,10.4
2017-10-07T07:41:25.213Z,10.3
2017-10-07T07:42:27.646Z,10.4
2017-10-07T07:43:30.078Z,10.4
2017-10-07T07:44:32.504Z,10.4
2017-10-07T07:45:34.931Z,10.5
2017-10-07T07:46:37.353Z,10.5
2017-10-07T07:47:39.786Z,10.5
2017-10-07T07:48:42.235Z,10.5
2017-10-07T07:49:44.658Z,10.5
2017-10-07T07:50:47.082Z,10.5
2017-10-07T07:51:49.508Z,10.5
2017-10-07T07:52:51.939Z,10.5
2017-10-07T07:53:54.374Z,10.5
2017-10-07T07:54:56.808Z,10.6
2017-10-07T07:55:59.572Z,10.5
2017-10-07T07:57:02.004Z,10.5
2017-10-07T07:58:04.449Z,10.5
2017-10-07T07:59:06.873Z,10.5
2017-10-07T08:00:09.299Z,10.6
2017-10-07T08:01:11.735Z,10.6
2017-10-07T08:02:14.489Z,10.6
2017-10-07T08:03:16.912Z,10.6
2017-10-07T08:04:19.702Z,10.6
2017-10-07T08:05:22.131Z,10.5
2017-10-07T08:06:25.118Z,10.5
2017-10-07T08:07:27.891Z,10.6
2017-10-07T08:08:30.320Z,10.5
2017-10-07T08:09:32.751Z,10.6
2017-10-07T08:10:35.195Z,10.6
2017-10-07T08:11:37.616Z,10.5
2017-10-07T08:12:40.037Z,10.6
2017-10-07T08:13:42.463Z,10.6
2017-10-07T08:14:44.894Z,10.5
2017-10-07T08:15:47.322Z,10.6
2017-10-07T08:16:49.753Z,10.5
2017-10-07T08:17:52.183Z,10.6
2017-10-07T08:18:54.604Z,10.5
2017-10-07T08:19:57.038Z,10.6
2017-10-07T08:20:59.473Z,10.5
2017-10-07T08:22:01.896Z,10.6
2017-10-07T08:23:04.335Z,10.6
2017-10-07T08:24:06.762Z,10.6
2017-10-07T08:25:09.190Z,10.6
2017-10-07T08:26:11.622Z,10.7
2017-10-07T08:27:14.051Z,10.6
2017-10-07T08:28:16.813Z,10.6
2017-10-07T08:29:19.241Z,10.6
2017-10-07T08:30:21.666Z,10.6
2017-10-07T08:31:24.103Z,10.6
2017-10-07T08:32:26.533Z,10.6
2017-10-07T08:33:28.963Z,10.6
2017-10-07T08:34:31.390Z,10.6
2017-10-07T08:35:33.825Z,10.6
2017-10-07T08:36:36.588Z,10.6
2017-10-07T08:37:39.019Z,10.6
2017-10-07T08:38:41.781Z,10.6
2017-10-07T08:39:44.207Z,10.6
2017-10-07T08:40:46.633Z,10.6
2017-10-07T08:41:49.063Z,10.7
2017-10-07T08:42:51.489Z,10.6
2017-10-07T08:43:54.600Z,10.6
2017-10-07T08:44:57.020Z,10.6
2017-10-07T08:45:59.454Z,10.7
2017-10-07T08:47:01.876Z,10.6
2017-10-07T08:48:04.298Z,10.6
2017-10-07T08:49:06.730Z,10.6
2017-10-07T08:50:09.160Z,10.6
2017-10-07T08:51:11.587Z,10.6
2017-10-07T08:52:14.032Z,10.7
2017-10-07T08:53:16.441Z,10.7
2017-10-07T08:54:18.875Z,10.7
2017-10-07T08:55:21.307Z,10.7
2017-10-07T08:56:24.078Z,10.7
2017-10-07T08:57:26.504Z,10.7
2017-10-07T08:58:28.925Z,10.7
2017-10-07T08:59:31.350Z,10.7
2017-10-07T09:00:33.776Z,10.7
2017-10-07T09:01:36.206Z,10.7
2017-10-07T09:02:38.652Z,10.7
2017-10-07T09:03:41.072Z,10.7
2017-10-07T09:04:43.496Z,10.7
2017-10-07T09:05:45.924Z,10.7
2017-10-07T09:06:48.694Z,10.7
2017-10-07T09:07:51.122Z,10.7
2017-10-07T09:08:53.550Z,10.7
2017-10-07T09:09:56.318Z,10.7
2017-10-07T09:10:58.753Z,10.7
2017-10-07T09:12:52.509Z,10.8
2017-10-07T09:13:54.942Z,10.8
2017-10-07T09:14:57.368Z,10.8
2017-10-07T09:15:59.789Z,10.7
2017-10-07T09:17:02.213Z,10.7
2017-10-07T09:18:04.654Z,10.7
2017-10-07T09:19:07.080Z,10.7
2017-10-07T09:20:09.504Z,10.7
2017-10-07T09:21:11.937Z,10.7
2017-10-07T09:22:14.370Z,10.7
2017-10-07T09:23:16.793Z,10.7
2017-10-07T09:24:19.227Z,10.7
2017-10-07T09:25:21.648Z,10.7
2017-10-07T09:26:24.079Z,10.7
2017-10-07T09:27:26.524Z,10.7
2017-10-07T09:28:28.946Z,10.7
2017-10-07T09:29:31.378Z,10.6
2017-10-07T09:30:33.811Z,10.6
2017-10-07T09:31:36.242Z,10.6
2017-10-07T09:32:38.892Z,10.5
2017-10-07T09:33:41.317Z,10.5
2017-10-07T09:34:43.746Z,10.5
2017-10-07T09:35:46.218Z,10.5
2017-10-07T09:36:48.983Z,10.5
2017-10-07T09:37:51.423Z,10.5
2017-10-07T09:38:53.846Z,10.5
2017-10-07T09:39:56.278Z,10.5
2017-10-07T09:40:58.712Z,10.5
2017-10-07T09:42:01.142Z,10.5
2017-10-07T09:43:03.912Z,10.5
2017-10-07T09:44:06.345Z,10.5
2017-10-07T09:45:08.767Z,10.5
2017-10-07T09:46:11.194Z,10.5
2017-10-07T09:47:13.634Z,10.5
2017-10-07T09:48:16.058Z,10.5
2017-10-07T09:49:18.495Z,10.5
2017-10-07T09:50:20.929Z,10.5
2017-10-07T09:51:23.350Z,10.5
2017-10-07T09:52:25.785Z,10.5
2017-10-07T09:53:28.209Z,10.5
2017-10-07T09:54:30.633Z,10.5
2017-10-07T09:55:33.059Z,10.5
2017-10-07T09:56:35.495Z,10.5
2017-10-07T09:57:37.921Z,10.5
2017-10-07T09:58:40.361Z,10.4
2017-10-07T09:59:43.123Z,10.5
2017-10-07T10:00:45.534Z,10.5
2017-10-07T10:01:47.970Z,10.5
2017-10-07T10:02:50.399Z,10.5
2017-10-07T10:03:52.831Z,10.5
2017-10-07T10:04:55.252Z,10.5
2017-10-07T10:05:57.677Z,10.5
2017-10-07T10:07:00.110Z,10.6
2017-10-07T10:08:02.550Z,10.5
2017-10-07T10:09:04.981Z,10.6
2017-10-07T10:10:07.413Z,10.5
2017-10-07T10:11:09.836Z,10.5
2017-10-07T10:12:12.271Z,10.5
2017-10-07T10:13:14.695Z,10.6
2017-10-07T10:14:17.460Z,10.6
2017-10-07T10:15:20.226Z,10.6
2017-10-07T10:16:22.663Z,10.6
2017-10-07T10:17:25.084Z,10.6
2017-10-07T10:18:27.514Z,10.6
2017-10-07T10:19:30.285Z,10.7
2017-10-07T10:20:32.708Z,10.6
2017-10-07T10:21:35.144Z,10.6
2017-10-07T10:22:37.571Z,10.6
2017-10-07T10:23:39.995Z,10.6
2017-10-07T10:24:42.427Z,10.7
2017-10-07T10:25:44.854Z,10.7
2017-10-07T10:26:47.652Z,10.7
2017-10-07T10:27:50.079Z,10.6
2017-10-07T10:28:52.509Z,10.7
2017-10-07T10:29:54.933Z,10.7
2017-10-07T10:30:57.359Z,10.6
2017-10-07T10:31:59.790Z,10.6
2017-10-07T10:33:02.219Z,10.7
2017-10-07T10:34:04.645Z,10.6
2017-10-07T10:35:07.082Z,10.5
2017-10-07T10:36:09.511Z,10.5
2017-10-07T10:37:11.942Z,10.5
2017-10-07T10:38:14.381Z,10.5
2017-10-07T10:39:17.161Z,10.5
2017-10-07T10:40:19.584Z,10.5
2017-10-07T10:41:22.013Z,10.4
2017-10-07T10:42:24.456Z,10.4
2017-10-07T10:43:26.862Z,10.4
2017-10-07T10:44:29.292Z,10.4
2017-10-07T10:45:32.066Z,10.4
2017-10-07T10:46:34.490Z,10.4
2017-10-07T10:47:36.918Z,10.4
2017-10-07T10:48:39.338Z,10.4
2017-10-07T10:49:41.775Z,10.4
2017-10-07T10:50:44.209Z,10.4
2017-10-07T10:51:46.635Z,10.4
2017-10-07T10:52:49.069Z,10.3
2017-10-07T10:53:51.504Z,10.3
2017-10-07T10:54:53.928Z,10.3
2017-10-07T10:55:56.369Z,10.4
2017-10-07T10:56:58.797Z,10.4
2017-10-07T10:58:01.564Z,10.4
2017-10-07T10:59:03.985Z,10.4
2017-10-07T11:00:06.422Z,10.4
2017-10-07T11:01:08.851Z,10.4
2017-10-07T11:02:11.271Z,10.4
2017-10-07T11:03:13.701Z,10.4
2017-10-07T11:04:16.127Z,10.4
2017-10-07T11:05:18.561Z,10.4
2017-10-07T11:06:20.999Z,10.4
2017-10-07T11:07:23.760Z,10.4
2017-10-07T11:08:26.189Z,10.4
2017-10-07T11:09:28.634Z,10.3
2017-10-07T11:10:31.051Z,10.3
2017-10-07T11:11:33.478Z,10.3
2017-10-07T11:12:35.897Z,10.3
2017-10-07T11:13:38.323Z,10.3
2017-10-07T11:14:40.769Z,10.2
2017-10-07T11:15:43.194Z,10.3
2017-10-07T11:16:45.611Z,10.2
2017-10-07T11:17:48.039Z,10.2
2017-10-07T11:18:50.807Z,10.2
2017-10-07T11:19:53.242Z,10.2
2017-10-07T11:20:55.672Z,10.2
2017-10-07T11:21:58.091Z,10.2
2017-10-07T11:23:00.523Z,10.2
2017-10-07T11:24:02.963Z,10.2
2017-10-07T11:25:05.404Z,10.2
2017-10-07T11:26:08.165Z,10.2
2017-10-07T11:27:10.581Z,10.2
2017-10-07T11:28:13.015Z,10.2
2017-10-07T11:29:15.444Z,10.2
2017-10-07T11:30:17.874Z,10.2
2017-10-07T11:31:20.644Z,10.3
2017-10-07T11:32:23.082Z,10.2
2017-10-07T11:33:25.498Z,10.3
2017-10-07T11:34:27.924Z,10.3
2017-10-07T11:35:30.365Z,10.3
2017-10-07T11:36:32.790Z,10.3
2017-10-07T11:37:35.580Z,10.3
2017-10-07T11:38:38.700Z,10.3
2017-10-07T11:39:41.129Z,10.3
2017-10-07T11:40:43.565Z,10.3
2017-10-07T11:41:45.996Z,10.3
2017-10-07T11:42:48.410Z,10.3
2017-10-07T11:43:50.842Z,10.3
2017-10-07T11:44:53.268Z,10.3
2017-10-07T11:45:55.687Z,10.3
2017-10-07T11:46:58.121Z,10.3
2017-10-07T11:48:00.531Z,10.2
2017-10-07T11:49:02.961Z,10.3
2017-10-07T11:50:05.397Z,10.2
2017-10-07T11:51:07.821Z,10.3
2017-10-07T11:52:10.261Z,10.2
2017-10-07T11:53:12.684Z,10.2
2017-10-07T11:54:15.116Z,10.3
2017-10-07T11:55:17.551Z,10.2
2017-10-07T11:56:19.973Z,10.3
2017-10-07T11:57:22.389Z,10.3
2017-10-07T11:58:24.820Z,10.3
2017-10-07T11:59:27.249Z,10.3
2017-10-07T12:00:29.681Z,10.3
2017-10-07T12:01:32.117Z,10.3
2017-10-07T12:02:34.545Z,10.3
2017-10-07T12:03:36.974Z,10.3
2017-10-07T12:04:39.399Z,10.3
2017-10-07T12:05:41.826Z,10.3
2017-10-07T12:06:44.248Z,10.3
2017-10-07T12:07:46.672Z,10.3
2017-10-07T12:08:49.101Z,10.3
2017-10-07T12:09:51.527Z,10.3
2017-10-07T12:10:53.954Z,10.3
2017-10-07T12:11:56.378Z,10.3
2017-10-07T12:12:59.151Z,10.3
2017-10-07T12:14:01.582Z,10.3
2017-10-07T12:15:04.014Z,10.3
2017-10-07T12:16:06.437Z,10.3
2017-10-07T12:17:08.868Z,10.3
2017-10-07T12:18:11.298Z,10.3
2017-10-07T12:19:13.729Z,10.3
2017-10-07T12:20:16.160Z,10.3
2017-10-07T12:21:18.588Z,10.2
2017-10-07T12:22:21.005Z,10.2
2017-10-07T12:23:23.777Z,10.2
2017-10-07T12:24:26.200Z,10.2
2017-10-07T12:25:28.625Z,10.2
2017-10-07T12:26:31.390Z,10.2
2017-10-07T12:27:33.823Z,10.2
2017-10-07T12:28:36.239Z,10.2
2017-10-07T12:29:39.027Z,10.2
2017-10-07T12:30:41.456Z,10.2
2017-10-07T12:31:43.884Z,10.2
2017-10-07T12:32:46.305Z,10.2
2017-10-07T12:33:48.726Z,10.2
2017-10-07T12:34:51.160Z,10.2
2017-10-07T12:35:53.587Z,10.2
2017-10-07T12:36:56.353Z,10.2
2017-10-07T12:37:58.780Z,10.2
2017-10-07T12:39:01.554Z,10.2
2017-10-07T12:40:03.993Z,10.2
2017-10-07T12:41:06.758Z,10.2
2017-10-07T12:42:09.187Z,10.2
2017-10-07T12:43:11.612Z,10.2
2017-10-07T12:44:14.048Z,10.1
2017-10-07T12:45:16.478Z,10.1
2017-10-07T12:46:18.914Z,10.1
2017-10-07T12:47:21.330Z,10.1
2017-10-07T12:48:23.756Z,10.1
2017-10-07T12:49:26.201Z,10.1
2017-10-07T12:50:28.618Z,10.1
2017-10-07T12:51:31.041Z,10.1
2017-10-07T12:52:33.463Z,10.1
2017-10-07T12:53:35.894Z,10.1
2017-10-07T12:54:38.328Z,10.1
2017-10-07T12:55:40.761Z,10
2017-10-07T12:56:43.182Z,10
2017-10-07T12:57:45.614Z,10.1
2017-10-07T12:58:48.417Z,10.1
2017-10-07T12:59:51.194Z,10.1
2017-10-07T13:00:53.617Z,10.1
2017-10-07T13:01:56.049Z,10.1
2017-10-07T13:02:58.472Z,10.1
2017-10-07T13:04:00.891Z,10.1
2017-10-07T13:05:03.329Z,10.1
2017-10-07T13:06:05.752Z,10.1
2017-10-07T13:07:08.180Z,10
2017-10-07T13:08:10.611Z,10.1
2017-10-07T13:09:13.042Z,10.1
2017-10-07T13:10:15.471Z,10
2017-10-07T13:11:17.915Z,10
2017-10-07T13:12:20.338Z,10
2017-10-07T13:13:23.107Z,10
2017-10-07T13:14:25.539Z,10
2017-10-07T13:15:27.963Z,10
2017-10-07T13:16:30.735Z,10
2017-10-07T13:17:33.164Z,10
2017-10-07T13:18:35.593Z,10
2017-10-07T13:19:38.016Z,10
2017-10-07T13:20:40.451Z,10
2017-10-07T13:21:42.871Z,10
2017-10-07T13:22:45.307Z,10
2017-10-07T13:23:47.742Z,10
2017-10-07T13:24:50.571Z,10
2017-10-07T13:25:52.998Z,10
2017-10-07T13:26:55.440Z,10
2017-10-07T13:27:58.201Z,10
2017-10-07T13:29:00.642Z,10
2017-10-07T13:30:03.091Z,10
2017-10-07T13:31:05.518Z,10
2017-10-07T13:32:07.948Z,9.9
2017-10-07T13:33:10.387Z,9.9
2017-10-07T13:34:12.813Z,9.9
2017-10-07T13:35:15.613Z,10
2017-10-07T13:36:18.058Z,10
2017-10-07T13:37:20.475Z,10
2017-10-07T13:38:22.914Z,10
2017-10-07T13:39:25.346Z,9.9
2017-10-07T13:40:27.768Z,10
2017-10-07T13:41:30.202Z,9.9
2017-10-07T13:42:32.974Z,9.9
2017-10-07T13:43:35.398Z,9.9
2017-10-07T13:44:37.826Z,10
2017-10-07T13:45:40.256Z,10
2017-10-07T13:46:42.677Z,9.9
2017-10-07T13:47:45.118Z,9.9
2017-10-07T13:48:47.539Z,9.9
2017-10-07T13:49:50.315Z,9.9
2017-10-07T13:50:52.748Z,9.9
2017-10-07T13:51:55.179Z,9.9
2017-10-07T13:52:57.611Z,9.9
2017-10-07T13:54:00.040Z,9.9
2017-10-07T13:55:02.460Z,9.9
2017-10-07T13:56:04.897Z,9.9